Temptress — WDG3900 — position and weather

sailwx.info

Track history (hours):
 
Tides and Currents Weather Stations Pressure Air Temp Water Temp Dewpoint Dewpoint Depression Visibility Wind Speed Wind Dir Waves Ship Positions

Temptress

Owner: Megonigal, Kim, Newport Beach, CA. More information available from US FCC via Universal Licensing System and Coast Guard Vessel Documentation Center.

Last reported at 2017-Nov-07 10:45 UTC. Time now 2017-Nov-21 22:56 UTC.
Position N 32°40' W 117°18'.
Warning: this ship's position is 14 days out of date.

Length 23 m.

Type: Pleasure craft. MMSI: 367530940.

Date/timePositionNaut miles runAvg speedWind from/ knotsBaromVisibWave heightAir tempDewpointWater temp
2017-Nov-07 10:45N 32°40' W 117°18'2 9.9
2017-Nov-07 10:30N 32°43' W 117°19'5 9.9
2017-Nov-07 10:00N 32°47' W 117°21'5 9.7
2017-Nov-07 09:30N 32°51' W 117°24'5 9.6
2017-Nov-07 09:00N 32°56' W 117°26'510.0
2017-Nov-07 08:30N 32°60' W 117°30'5 9.5
2017-Nov-07 08:00N 33°04' W 117°32'5 9.3
2017-Nov-07 07:30N 33°08' W 117°35'6 9.4
2017-Nov-07 06:49N 33°14' W 117°39'3 9.6
2017-Nov-07 06:30N 33°16' W 117°40'5 9.5
2017-Nov-07 06:00N 33°20' W 117°43'  
Track history (hours):
 
Tides and Currents Weather Stations Pressure Air Temp Water Temp Dewpoint Dewpoint Depression Visibility Wind Speed Wind Dir Waves Ship Positions

Temptress

Owner: Megonigal, Kim, Newport Beach, CA. More information available from US FCC via Universal Licensing System and Coast Guard Vessel Documentation Center.

Last reported at 2017-Nov-07 10:45 UTC. Time now 2017-Nov-21 22:56 UTC.
Position N 32°40' W 117°18'.
Warning: this ship's position is 14 days out of date.

Length 23 m.

Type: Pleasure craft. MMSI: 367530940.

Date/timePositionNaut miles runAvg speedWind from/ knotsBaromVisibWave heightAir tempDewpointWater temp
2017-Nov-07 10:45N 32°40' W 117°18'2 9.9
2017-Nov-07 10:30N 32°43' W 117°19'5 9.9
2017-Nov-07 10:00N 32°47' W 117°21'5 9.7
2017-Nov-07 09:30N 32°51' W 117°24'5 9.6
2017-Nov-07 09:00N 32°56' W 117°26'510.0
2017-Nov-07 08:30N 32°60' W 117°30'5 9.5
2017-Nov-07 08:00N 33°04' W 117°32'5 9.3
2017-Nov-07 07:30N 33°08' W 117°35'6 9.4
2017-Nov-07 06:49N 33°14' W 117°39'3 9.6
2017-Nov-07 06:30N 33°16' W 117°40'5 9.5
2017-Nov-07 06:00N 33°20' W 117°43'  

Dump ship's entire track history